615VGS Twitter

615vgs Well done Matthew Winwood! http://t.co/2yz17n0bmF
615vgs Well done Matthew Winwood! http://t.co/stFKnV0jYo
615vgs Very excited Boss today... http://t.co/iJw8S8DNQr
615vgs RT @KC615VGS: That's it then! OC.615VGS email & the Sqn is in the safe hands of Flt Lt Paul Reed. If you want me use MTO.615VGS@aircadets.o…

615VGS Facebook

Staff Login


Staff who require login details should contact the MCO.

Join 615 VGS

 

 

Upcoming Events

615 VGS Partner

bigatmo

Course Photos 2013

KY Aviation Wx

[source: ADDS]
METAR
EGKB 170620Z 22009KT CAVOK 10/03 Q1021 =
TAF
TAF EGKB 170630Z 1706/1715 20006KT 9999 FEW040 BECMG 1709/1712 26010KT =
SR / SS: 04:58 / 18:59 UTC (Sunrise/Sunset 2014-04-17)